This is the latest recevied weather packets stored in our database for station/object LEMD. If no packets are shown the sender has not sent any weather packets the latest 10 day(s).
| Time | Temp. | Humidity | Pressure | Rain* | Wind** | Luminosity | Snow |
|---|---|---|---|---|---|---|---|
| 1777770004 | 12.78° C | 100% | 1015 hPa | - | - | - | - |
| 1777769104 | 12.78° C | 100% | 1015 hPa | - | - | - | - |
| 1777768204 | 12.78° C | 100% | 1016 hPa | - | - | - | - |
| 1777765504 | 13.89° C | 100% | 1015 hPa | - | - | - | - |
| 1777763704 | 12.78° C | 100% | 1015 hPa | - | - | - | - |
| 1777762805 | 15° C | 87% | 1016 hPa | - | - | - | - |
| 1777761904 | 15° C | 87% | 1016 hPa | - | - | - | - |
| 1777761004 | 13.89° C | 82% | 1016 hPa | - | - | - | - |
| 1777760104 | 13.89° C | 82% | 1016 hPa | - | - | - | - |
| 1777759206 | 13.89° C | 82% | 1016 hPa | - | - | - | - |
| 1777758304 | 13.89° C | 82% | 1016 hPa | - | - | - | - |
| 1777755604 | 17.22° C | 67% | 1015 hPa | - | - | - | - |
| 1777754705 | 17.22° C | 67% | 1015 hPa | - | - | - | - |
| 1777753805 | 17.22° C | 67% | 1015 hPa | - | - | - | - |
| 1777752903 | 17.22° C | 67% | 1015 hPa | - | - | - | - |
| 1777751104 | 17.22° C | 67% | 1015 hPa | - | - | - | - |
| 1777749304 | 17.78° C | 63% | 1015 hPa | - | - | - | - |
| 1777745704 | 17.22° C | 67% | 1015 hPa | - | - | - | - |
| 1777744804 | 17.22° C | 63% | 1015 hPa | - | - | - | - |
| 1777743004 | 17.22° C | 67% | 1015 hPa | - | - | - | - |
| 1777742104 | 17.22° C | 67% | 1015 hPa | - | - | - | - |
| 1777741205 | 18.89° C | 63% | 1016 hPa | - | - | - | - |
| 1777740304 | 18.89° C | 63% | 1016 hPa | - | - | - | - |
| 1777738504 | 20° C | 60% | 1015 hPa | - | - | - | - |
| 1777737603 | 21.11° C | 64% | 1015 hPa | - | - | - | - |
* Rain since midnight (hover to see other rain measurements)
** Current wind speed in m/s (hover to see current wind gust speed)